createdAt,value
2019-02-10T08:02:10.692Z,75.00
2019-02-10T08:05:08.937Z,75.07
2019-02-10T08:08:22.123Z,75.53
2019-02-10T08:11:15.510Z,75.74
2019-02-10T08:14:06.312Z,75.90
2019-02-10T08:17:09.973Z,76.19
2019-02-10T08:20:16.634Z,76.21
2019-02-10T08:23:09.929Z,76.61
2019-02-10T08:26:12.667Z,76.72
2019-02-10T08:29:15.424Z,76.93
2019-02-10T08:32:15.699Z,76.87
2019-02-10T08:35:27.339Z,77.37
2019-02-10T08:38:36.087Z,77.26
2019-02-10T08:41:37.397Z,77.21
2019-02-10T08:44:49.846Z,77.35
2019-02-10T08:48:09.836Z,77.61
2019-02-10T08:51:07.564Z,77.25
2019-02-10T08:53:40.526Z,77.43
2019-02-10T08:56:10.973Z,77.68
2019-02-10T08:58:41.812Z,77.64
2019-02-10T09:01:12.328Z,77.54
2019-02-10T09:03:42.713Z,77.65
2019-02-10T09:06:13.594Z,77.66
2019-02-10T09:08:43.216Z,77.64
2019-02-10T09:11:14.063Z,77.78
2019-02-10T09:13:44.995Z,78.21
2019-02-10T09:16:14.608Z,78.22
2019-02-10T09:18:45.447Z,78.46
2019-02-10T09:21:16.907Z,78.31
2019-02-10T09:23:47.433Z,78.07
2019-02-10T09:26:19.828Z,78.36
2019-02-10T09:28:52.077Z,78.77
2019-02-10T09:31:22.610Z,79.82
2019-02-10T09:33:52.020Z,80.16
2019-02-10T09:36:21.549Z,80.46
2019-02-10T09:38:53.798Z,80.65
2019-02-10T09:41:23.199Z,80.80
2019-02-10T09:43:52.624Z,80.58
2019-02-10T09:46:22.017Z,80.99
2019-02-10T09:48:52.416Z,80.73
2019-02-10T09:51:22.982Z,81.04
2019-02-10T09:53:52.335Z,80.93
2019-02-10T09:56:22.017Z,81.19
2019-02-10T09:58:51.592Z,81.01
2019-02-10T10:01:22.091Z,81.40
2019-02-10T10:03:51.540Z,82.07
2019-02-10T10:06:23.790Z,82.57
2019-02-10T10:08:54.234Z,83.07
2019-02-10T10:11:23.754Z,83.48
2019-02-10T10:13:53.469Z,83.34
2019-02-10T10:16:24.319Z,83.18
2019-02-10T10:18:54.762Z,83.11
2019-02-10T10:21:24.442Z,82.73
2019-02-10T10:23:53.969Z,82.59
2019-02-10T10:26:23.381Z,82.24
2019-02-10T10:28:53.806Z,82.19
2019-02-10T10:31:23.271Z,81.87
2019-02-10T10:33:52.760Z,81.66
2019-02-10T10:36:22.310Z,81.49
2019-02-10T10:38:53.497Z,81.82
2019-02-10T10:41:23.884Z,82.15
2019-02-10T10:43:53.517Z,81.95
2019-02-10T10:46:22.939Z,82.13
2019-02-10T10:48:52.421Z,82.40
2019-02-10T10:51:23.727Z,82.45
2019-02-10T10:53:53.228Z,82.61
2019-02-10T10:56:22.632Z,82.88
2019-02-10T10:58:52.165Z,82.82
2019-02-10T11:01:25.570Z,82.94
2019-02-10T11:03:56.489Z,82.90
2019-02-10T11:06:27.067Z,83.53
2019-02-10T11:08:57.914Z,83.13
2019-02-10T11:11:29.106Z,83.14
2019-02-10T11:13:59.685Z,83.64
2019-02-10T11:16:29.051Z,83.75
2019-02-10T11:19:00.437Z,83.61
2019-02-10T11:21:30.270Z,83.40
2019-02-10T11:23:59.821Z,83.87
2019-02-10T11:26:30.226Z,83.94
2019-02-10T11:29:00.017Z,83.91
2019-02-10T11:31:29.408Z,83.76
2019-02-10T11:33:58.779Z,83.86
2019-02-10T11:36:28.333Z,83.93
2019-02-10T11:38:57.803Z,83.63
2019-02-10T11:41:27.248Z,83.36
2019-02-10T11:43:57.167Z,83.82
2019-02-10T11:46:28.363Z,83.19
2019-02-10T11:48:57.771Z,83.54
2019-02-10T11:51:28.321Z,83.73
2019-02-10T11:54:03.428Z,83.80
2019-02-10T11:56:32.898Z,83.47
2019-02-10T11:59:03.770Z,83.66
2019-02-10T12:01:33.286Z,83.31
2019-02-10T12:04:02.675Z,83.30
2019-02-10T12:06:32.485Z,83.42
2019-02-10T12:09:01.982Z,83.26
2019-02-10T12:11:31.386Z,83.26
2019-02-10T12:14:00.934Z,83.53
2019-02-10T12:16:30.364Z,83.71
2019-02-10T12:18:59.759Z,83.54
2019-02-10T12:21:29.421Z,83.76
2019-02-10T12:23:58.777Z,83.51
2019-02-10T12:26:28.469Z,83.66
2019-02-10T12:28:59.121Z,83.95
2019-02-10T12:31:28.578Z,83.31
2019-02-10T12:33:57.969Z,83.48
2019-02-10T12:36:27.593Z,83.13
2019-02-10T12:38:56.968Z,83.13
2019-02-10T12:41:26.361Z,83.66
2019-02-10T12:43:56.058Z,83.69
2019-02-10T12:46:26.474Z,83.26
2019-02-10T12:48:56.867Z,83.83
2019-02-10T12:51:26.302Z,83.76
2019-02-10T12:53:55.691Z,83.99
2019-02-10T12:56:25.074Z,83.95
2019-02-10T12:58:55.520Z,83.89
2019-02-10T13:01:24.925Z,83.84
2019-02-10T13:03:56.116Z,83.72
2019-02-10T13:06:25.606Z,83.54
2019-02-10T13:08:54.976Z,83.87
2019-02-10T13:11:24.649Z,84.01
2019-02-10T13:13:54.116Z,83.52
2019-02-10T13:16:25.313Z,83.68
2019-02-10T13:18:56.426Z,83.46
2019-02-10T13:21:27.246Z,83.42
2019-02-10T13:23:56.792Z,83.85
2019-02-10T13:26:26.368Z,83.86
2019-02-10T13:28:57.655Z,83.81
2019-02-10T13:31:28.156Z,84.01
2019-02-10T13:33:57.686Z,84.25
2019-02-10T13:36:27.489Z,84.06
2019-02-10T13:38:56.986Z,83.99
2019-02-10T13:41:35.515Z,84.13
2019-02-10T13:44:06.293Z,84.25
2019-02-10T13:46:35.858Z,84.42
2019-02-10T13:49:07.055Z,84.40
2019-02-10T13:51:38.201Z,84.29
2019-02-10T13:54:07.570Z,83.91
2019-02-10T13:56:38.765Z,84.25
2019-02-10T13:59:08.611Z,84.38
2019-02-10T14:01:40.230Z,84.33
2019-02-10T14:04:09.747Z,84.69
2019-02-10T14:06:40.286Z,84.67
2019-02-10T14:09:09.735Z,84.99
2019-02-10T14:11:39.322Z,85.04
2019-02-10T14:14:10.574Z,85.30
2019-02-10T14:16:40.072Z,85.82
2019-02-10T14:19:09.472Z,85.91
2019-02-10T14:21:41.386Z,85.99
2019-02-10T14:24:10.857Z,85.99
2019-02-10T14:26:40.376Z,86.25
2019-02-10T14:29:11.116Z,86.56
2019-02-10T14:31:41.603Z,87.27
2019-02-10T14:34:12.457Z,87.02
2019-02-10T14:36:42.000Z,86.14
2019-02-10T14:39:11.500Z,86.25
2019-02-10T14:41:41.968Z,85.64
2019-02-10T14:44:11.546Z,85.42
2019-02-10T14:46:42.832Z,85.68
2019-02-10T14:49:12.362Z,85.63
2019-02-10T14:51:42.309Z,85.79
2019-02-10T14:54:11.756Z,85.69
2019-02-10T14:56:41.137Z,85.38
2019-02-10T14:59:11.767Z,84.96
2019-02-10T15:01:41.184Z,84.88
2019-02-10T15:04:11.719Z,85.49
2019-02-10T15:06:41.380Z,85.85
2019-02-10T15:09:11.385Z,86.18
2019-02-10T15:11:40.909Z,86.24
2019-02-10T15:14:11.682Z,86.58
2019-02-10T15:16:43.145Z,86.50
2019-02-10T15:19:12.532Z,86.29
2019-02-10T15:21:43.398Z,86.45
2019-02-10T15:24:14.555Z,86.69
2019-02-10T15:26:45.008Z,86.38
2019-02-10T15:29:15.033Z,87.17
2019-02-10T15:31:44.442Z,87.06
2019-02-10T15:34:15.364Z,86.80
2019-02-10T15:36:44.837Z,86.55
2019-02-10T15:39:14.219Z,86.07
2019-02-10T15:41:43.650Z,85.94
2019-02-10T15:44:14.773Z,85.40
2019-02-10T15:46:44.173Z,85.59
2019-02-10T15:49:13.554Z,85.61
2019-02-10T15:51:45.481Z,84.76
2019-02-10T15:54:15.974Z,84.47
2019-02-10T15:56:46.370Z,84.44
2019-02-10T15:59:15.895Z,83.97
2019-02-10T16:01:46.505Z,83.74
2019-02-10T16:04:15.909Z,84.02
2019-02-10T16:06:47.930Z,84.15
2019-02-10T16:09:19.116Z,84.31
2019-02-10T16:11:49.652Z,83.50
2019-02-10T16:14:20.692Z,84.01
2019-02-10T16:16:50.072Z,84.01
2019-02-10T16:19:21.621Z,83.40
2019-02-10T16:21:51.241Z,82.77
2019-02-10T16:24:20.632Z,82.75
2019-02-10T16:26:50.145Z,82.38
2019-02-10T16:29:20.676Z,83.47
2019-02-10T16:31:50.189Z,83.99
2019-02-10T16:34:21.386Z,82.96
2019-02-10T16:36:52.084Z,82.60
2019-02-10T16:39:21.464Z,82.16
2019-02-10T16:41:51.003Z,82.05
2019-02-10T16:44:20.716Z,82.18
2019-02-10T16:46:50.129Z,81.81
2019-02-10T16:49:19.638Z,81.78
2019-02-10T16:51:49.339Z,81.49
2019-02-10T16:54:18.751Z,80.58
2019-02-10T16:56:49.663Z,79.99
2019-02-10T16:59:19.155Z,80.01
2019-02-10T17:01:48.525Z,80.13
2019-02-10T17:04:18.951Z,80.68
2019-02-10T17:06:48.641Z,80.74
2019-02-10T17:09:19.394Z,80.89
2019-02-10T17:11:50.023Z,81.01
2019-02-10T17:14:19.751Z,80.90
2019-02-10T17:16:49.138Z,80.90
2019-02-10T17:19:19.569Z,81.19
2019-02-10T17:21:49.895Z,81.24
2019-02-10T17:24:20.493Z,81.21
2019-02-10T17:26:50.049Z,80.50
2019-02-10T17:29:20.650Z,80.01
2019-02-10T17:31:52.943Z,79.76
2019-02-10T17:34:24.144Z,80.24
2019-02-10T17:36:53.801Z,79.96
2019-02-10T17:39:26.019Z,79.89
2019-02-10T17:41:57.212Z,79.79
2019-02-10T17:44:28.511Z,79.52
2019-02-10T17:46:58.918Z,78.72
2019-02-10T17:49:28.395Z,79.18
2019-02-10T17:51:57.809Z,78.84
2019-02-10T17:54:27.185Z,78.80
2019-02-10T17:56:59.118Z,78.39
2019-02-10T17:59:30.851Z,78.19
2019-02-10T18:02:01.591Z,77.89
2019-02-10T18:04:37.349Z,78.31
2019-02-10T18:07:03.355Z,78.09
2019-02-10T18:09:32.875Z,77.46
2019-02-10T18:12:02.368Z,77.46
2019-02-10T18:14:47.441Z,77.18
2019-02-10T18:17:41.832Z,76.71
2019-02-10T18:20:26.874Z,76.30
2019-02-10T18:23:22.899Z,76.33
2019-02-10T18:26:27.762Z,76.24
2019-02-10T18:29:16.794Z,75.65
2019-02-10T18:32:01.203Z,75.71
2019-02-10T18:34:44.218Z,75.92
2019-02-10T18:37:33.598Z,75.63
2019-02-10T18:40:20.510Z,74.83
2019-02-10T18:43:08.223Z,74.46
2019-02-10T18:45:58.288Z,73.99
2019-02-10T18:48:52.979Z,74.47
2019-02-10T18:51:32.110Z,74.50
2019-02-10T18:54:19.775Z,73.67
2019-02-10T18:57:06.525Z,73.68
2019-02-10T18:59:48.391Z,73.87
2019-02-10T19:02:32.437Z,74.01
2019-02-10T19:05:23.666Z,73.84
2019-02-10T19:08:03.851Z,73.26
2019-02-10T19:11:00.219Z,73.48
2019-02-10T19:13:39.872Z,72.86
2019-02-10T19:16:25.753Z,72.50
2019-02-10T19:19:19.065Z,71.64
2019-02-10T19:22:09.204Z,71.86
2019-02-10T19:25:00.640Z,72.24
2019-02-10T19:27:37.901Z,73.08
2019-02-10T19:30:34.654Z,73.32
2019-02-10T19:33:23.565Z,74.24
2019-02-10T19:36:11.119Z,74.51
2019-02-10T19:38:54.471Z,74.98
2019-02-10T19:41:38.638Z,75.41
2019-02-10T19:44:16.868Z,75.73
2019-02-10T19:47:01.002Z,77.25
2019-02-10T19:49:49.461Z,77.45
2019-02-10T19:52:30.105Z,77.88
2019-02-10T19:55:18.659Z,78.02
2019-02-10T19:58:10.820Z,77.72
2019-02-10T20:00:59.936Z,78.16
2019-02-10T20:03:41.099Z,78.44
2019-02-10T20:06:32.659Z,78.73
2019-02-10T20:09:20.143Z,78.50
2019-02-10T20:12:08.780Z,78.56
2019-02-10T20:14:51.778Z,78.70
2019-02-10T20:17:47.356Z,78.64
2019-02-10T20:20:42.580Z,77.93
2019-02-10T20:23:38.212Z,77.07
2019-02-10T20:26:26.544Z,76.98
2019-02-10T20:29:21.974Z,77.36
2019-02-10T20:32:17.581Z,78.04
2019-02-10T20:35:12.933Z,78.52
2019-02-10T20:37:50.433Z,77.94
2019-02-10T20:40:28.791Z,77.47
2019-02-10T20:43:06.639Z,78.73
2019-02-10T20:45:47.994Z,78.91
2019-02-10T20:48:29.895Z,79.57
2019-02-10T20:51:21.329Z,79.63
2019-02-10T20:54:01.487Z,79.27
2019-02-10T20:56:50.103Z,78.34
2019-02-10T20:59:34.581Z,78.40
2019-02-10T21:02:24.429Z,78.75
2019-02-10T21:04:59.150Z,79.22
2019-02-10T21:07:39.215Z,78.16
2019-02-10T21:10:30.588Z,78.49
2019-02-10T21:13:15.580Z,78.83
2019-02-10T21:16:02.257Z,78.60
2019-02-10T21:19:05.053Z,78.62
2019-02-10T21:22:02.741Z,78.47
2019-02-10T21:24:42.849Z,78.97
2019-02-10T21:27:37.031Z,78.05
2019-02-10T21:30:44.807Z,77.87
2019-02-10T21:33:30.985Z,78.00
2019-02-10T21:36:27.226Z,78.58
2019-02-10T21:39:13.262Z,78.34
2019-02-10T21:41:56.662Z,78.47
2019-02-10T21:45:04.762Z,79.05
2019-02-10T21:47:44.561Z,79.59
2019-02-10T21:50:14.044Z,79.80
2019-02-10T21:52:44.544Z,79.05
2019-02-10T21:55:14.212Z,79.25
2019-02-10T21:57:43.654Z,79.32
2019-02-10T22:00:14.010Z,79.31
2019-02-10T22:02:43.477Z,79.42
2019-02-10T22:05:12.870Z,79.96
2019-02-10T22:07:45.261Z,80.22
2019-02-10T22:10:15.965Z,80.56
2019-02-10T22:12:45.365Z,81.08
2019-02-10T22:15:16.182Z,81.44
2019-02-10T22:17:47.585Z,81.34
2019-02-10T22:20:18.805Z,81.40
2019-02-10T22:22:48.195Z,81.00
2019-02-10T22:25:19.367Z,81.29
2019-02-10T22:27:50.539Z,80.65
2019-02-10T22:30:21.051Z,81.37
2019-02-10T22:32:50.578Z,81.61
2019-02-10T22:35:19.960Z,81.75
2019-02-10T22:37:49.909Z,81.15
2019-02-10T22:40:21.423Z,81.50
2019-02-10T22:42:52.031Z,81.15
2019-02-10T22:45:21.568Z,81.46
2019-02-10T22:47:52.128Z,81.25
2019-02-10T22:50:21.556Z,82.22
2019-02-10T22:52:52.776Z,82.69
2019-02-10T22:55:22.240Z,82.33
2019-02-10T22:57:53.607Z,82.52
2019-02-10T23:00:50.426Z,82.28
2019-02-10T23:03:21.084Z,82.55
2019-02-10T23:05:50.590Z,83.02
2019-02-10T23:08:20.221Z,82.92
2019-02-10T23:10:49.816Z,83.06
2019-02-10T23:13:20.675Z,83.16
2019-02-10T23:15:52.235Z,83.34
2019-02-10T23:18:22.649Z,83.26
2019-02-10T23:20:52.289Z,83.49
2019-02-10T23:23:21.742Z,83.33
2019-02-10T23:25:52.956Z,83.03
2019-02-10T23:28:22.458Z,82.84
2019-02-10T23:30:52.032Z,82.40
2019-02-10T23:33:22.523Z,82.04
2019-02-10T23:35:52.083Z,81.39
2019-02-10T23:38:21.798Z,80.68
2019-02-10T23:40:53.443Z,80.81
2019-02-10T23:43:23.790Z,80.51
2019-02-10T23:45:53.941Z,80.22
2019-02-10T23:48:23.775Z,79.60
2019-02-10T23:50:53.613Z,79.20
2019-02-10T23:53:23.860Z,79.53
2019-02-10T23:55:53.720Z,79.39
2019-02-10T23:58:23.743Z,78.89
